createdAt,value
2023-04-22T00:00:02.732Z,94323.00
2023-04-22T00:01:02.755Z,94319.00
2023-04-22T00:02:02.795Z,94321.00
2023-04-22T00:03:03.003Z,94319.00
2023-04-22T00:04:03.105Z,94323.00
2023-04-22T00:05:03.119Z,94321.00
2023-04-22T00:06:02.865Z,94323.00
2023-04-22T00:07:02.883Z,94323.00
2023-04-22T00:08:02.943Z,94325.00
2023-04-22T00:09:02.932Z,94323.00
2023-04-22T00:10:02.969Z,94321.00
2023-04-22T00:11:03.014Z,94321.00
2023-04-22T00:12:03.010Z,94321.00
2023-04-22T00:13:03.028Z,94319.00
2023-04-22T00:14:03.068Z,94318.00
2023-04-22T00:15:03.155Z,94319.00
2023-04-22T00:16:03.179Z,94319.00
2023-04-22T00:17:03.182Z,94319.00
2023-04-22T00:18:03.199Z,94318.00
2023-04-22T00:19:03.203Z,94319.00
2023-04-22T00:20:03.353Z,94321.00
2023-04-22T00:21:03.288Z,94319.00
2023-04-22T00:22:03.300Z,94321.00
2023-04-22T00:23:03.429Z,94321.00
2023-04-22T00:24:03.383Z,94319.00
2023-04-22T00:25:03.407Z,94321.00
2023-04-22T00:26:03.485Z,94319.00
2023-04-22T00:27:03.485Z,94319.00
2023-04-22T00:28:03.520Z,94319.00
2023-04-22T00:29:03.602Z,94319.00
2023-04-22T00:30:03.627Z,94319.00
2023-04-22T00:31:03.757Z,94319.00
2023-04-22T00:32:03.687Z,94318.00
2023-04-22T00:33:03.781Z,94319.00
2023-04-22T00:34:03.735Z,94321.00
2023-04-22T00:35:03.778Z,94321.00
2023-04-22T00:36:03.817Z,94323.00
2023-04-22T00:37:03.855Z,94323.00
2023-04-22T00:38:03.853Z,94323.00
2023-04-22T00:39:04.036Z,94323.00
2023-04-22T00:40:03.939Z,94321.00
2023-04-22T00:41:03.986Z,94323.00
2023-04-22T00:42:04.020Z,94321.00
2023-04-22T00:43:04.061Z,94323.00
2023-04-22T00:44:04.068Z,94325.00
2023-04-22T00:45:04.126Z,94325.00
2023-04-22T00:46:04.203Z,94325.00
2023-04-22T00:47:04.371Z,94325.00
2023-04-22T00:48:04.258Z,94325.00
2023-04-22T00:49:04.266Z,94325.00
2023-04-22T00:50:04.279Z,94325.00
2023-04-22T00:51:04.345Z,94325.00
2023-04-22T00:52:04.361Z,94323.00
2023-04-22T00:53:04.396Z,94325.00
2023-04-22T00:54:04.454Z,94323.00
2023-04-22T00:55:04.444Z,94321.00
2023-04-22T00:56:04.484Z,94321.00
2023-04-22T00:57:04.546Z,94319.00
2023-04-22T00:58:04.543Z,94319.00
2023-04-22T00:59:04.622Z,94319.00
2023-04-22T01:00:04.616Z,94321.00
2023-04-22T01:01:04.686Z,94323.00
2023-04-22T01:02:04.711Z,94321.00
2023-04-22T01:03:04.840Z,94321.00
2023-04-22T01:04:04.832Z,94318.00
2023-04-22T01:05:04.730Z,94323.00
2023-04-22T01:06:04.780Z,94323.00
2023-04-22T01:07:04.827Z,94325.00
2023-04-22T01:08:04.816Z,94323.00
2023-04-22T01:09:04.823Z,94321.00
2023-04-22T01:10:04.921Z,94325.00
2023-04-22T01:11:04.914Z,94325.00
2023-04-22T01:12:04.948Z,94325.00
2023-04-22T01:13:04.959Z,94329.00
2023-04-22T01:14:04.993Z,94327.00
2023-04-22T01:15:05.266Z,94331.00
2023-04-22T01:16:05.104Z,94333.00
2023-04-22T01:17:05.171Z,94333.00
2023-04-22T01:18:05.197Z,94333.00
2023-04-22T01:19:05.175Z,94335.00
2023-04-22T01:20:05.199Z,94337.00
2023-04-22T01:21:05.216Z,94337.00
2023-04-22T01:22:05.266Z,94339.00
2023-04-22T01:23:05.301Z,94339.00
2023-04-22T01:24:05.343Z,94341.00
2023-04-22T01:25:05.375Z,94341.00
2023-04-22T01:26:05.379Z,94341.00
2023-04-22T01:27:05.390Z,94339.00
2023-04-22T01:28:05.425Z,94339.00
2023-04-22T01:29:05.461Z,94341.00
2023-04-22T01:30:05.504Z,94343.00
2023-04-22T01:31:05.556Z,94341.00
2023-04-22T01:32:05.624Z,94343.00
2023-04-22T01:33:05.618Z,94341.00
2023-04-22T01:34:05.622Z,94343.00
2023-04-22T01:35:05.670Z,94335.00
2023-04-22T01:36:05.697Z,94337.00
2023-04-22T01:37:05.697Z,94335.00
2023-04-22T01:38:05.737Z,94333.00
2023-04-22T01:39:05.744Z,94331.00
2023-04-22T01:40:05.766Z,94333.00
2023-04-22T01:41:05.842Z,94335.00
2023-04-22T01:42:05.919Z,94335.00
2023-04-22T01:43:05.869Z,94337.00
2023-04-22T01:44:05.897Z,94341.00
2023-04-22T01:45:05.920Z,94343.00
2023-04-22T01:46:05.987Z,94345.00
2023-04-22T01:47:05.980Z,94343.00
2023-04-22T01:48:06.037Z,94343.00
2023-04-22T01:49:06.042Z,94341.00
2023-04-22T01:50:06.049Z,94337.00
2023-04-22T01:51:06.071Z,94339.00
2023-04-22T01:52:06.121Z,94339.00
2023-04-22T01:53:06.144Z,94343.00
2023-04-22T01:54:06.207Z,94343.00
2023-04-22T01:55:06.271Z,94341.00
2023-04-22T01:56:06.285Z,94343.00
2023-04-22T01:57:06.294Z,94343.00
2023-04-22T01:58:06.317Z,94343.00
2023-04-22T01:59:06.358Z,94347.00
2023-04-22T02:00:06.349Z,94345.00
2023-04-22T02:01:06.416Z,94347.00
2023-04-22T02:02:06.441Z,94345.00
2023-04-22T02:03:06.539Z,94345.00
2023-04-22T02:04:06.480Z,94345.00
2023-04-22T02:05:06.626Z,94343.00
2023-04-22T02:06:06.545Z,94345.00
2023-04-22T02:07:06.582Z,94345.00
2023-04-22T02:08:06.611Z,94345.00
2023-04-22T02:09:07.338Z,94347.00
2023-04-22T02:10:06.646Z,94343.00
2023-04-22T02:11:06.653Z,94343.00
2023-04-22T02:12:06.665Z,94345.00
2023-04-22T02:13:06.675Z,94345.00
2023-04-22T02:14:06.704Z,94347.00
2023-04-22T02:15:06.763Z,94347.00
2023-04-22T02:16:06.827Z,94347.00
2023-04-22T02:17:06.905Z,94347.00
2023-04-22T02:18:06.824Z,94345.00
2023-04-22T02:19:06.867Z,94345.00
2023-04-22T02:20:06.916Z,94345.00
2023-04-22T02:21:06.916Z,94347.00
2023-04-22T02:22:07.031Z,94343.00
2023-04-22T02:23:06.981Z,94345.00
2023-04-22T02:24:07.091Z,94345.00
2023-04-22T02:25:07.092Z,94347.00
2023-04-22T02:26:07.109Z,94349.00
2023-04-22T02:27:07.099Z,94347.00
2023-04-22T02:28:07.132Z,94347.00
2023-04-22T02:29:07.185Z,94343.00
2023-04-22T02:30:07.236Z,94345.00
2023-04-22T02:31:07.253Z,94345.00
2023-04-22T02:32:07.268Z,94341.00
2023-04-22T02:33:07.333Z,94341.00
2023-04-22T02:34:07.331Z,94337.00
2023-04-22T02:35:07.362Z,94337.00
2023-04-22T02:36:07.749Z,94339.00
2023-04-22T02:37:07.465Z,94337.00
2023-04-22T02:38:07.513Z,94335.00
2023-04-22T02:39:07.591Z,94339.00
2023-04-22T02:40:07.555Z,94335.00
2023-04-22T02:41:07.584Z,94337.00
2023-04-22T02:42:07.525Z,94337.00
2023-04-22T02:43:07.554Z,94339.00
2023-04-22T02:44:07.588Z,94341.00
2023-04-22T02:45:07.664Z,94337.00
2023-04-22T02:46:07.764Z,94339.00
2023-04-22T02:47:07.809Z,94341.00
2023-04-22T02:48:08.018Z,94341.00
2023-04-22T02:49:07.748Z,94341.00
2023-04-22T02:50:07.840Z,94341.00
2023-04-22T02:51:07.893Z,94341.00
2023-04-22T02:52:07.812Z,94341.00
2023-04-22T02:53:07.835Z,94341.00
2023-04-22T02:54:07.909Z,94345.00
2023-04-22T02:55:07.931Z,94345.00
2023-04-22T02:56:07.954Z,94345.00
2023-04-22T02:57:07.960Z,94345.00
2023-04-22T02:58:07.984Z,94347.00
2023-04-22T02:59:08.012Z,94347.00
2023-04-22T03:00:08.068Z,94345.00
2023-04-22T03:01:08.204Z,94345.00
2023-04-22T03:02:08.326Z,94345.00
2023-04-22T03:03:08.323Z,94343.00
2023-04-22T03:04:08.248Z,94345.00
2023-04-22T03:05:08.231Z,94341.00
2023-04-22T03:06:08.246Z,94341.00
2023-04-22T03:07:08.274Z,94339.00
2023-04-22T03:08:08.297Z,94341.00
2023-04-22T03:09:08.363Z,94337.00
2023-04-22T03:10:08.477Z,94339.00
2023-04-22T03:11:08.428Z,94339.00
2023-04-22T03:12:08.463Z,94341.00
2023-04-22T03:13:08.539Z,94339.00
2023-04-22T03:14:08.538Z,94341.00
2023-04-22T03:15:08.539Z,94341.00
2023-04-22T03:16:10.343Z,94343.00
2023-04-22T03:17:08.629Z,94343.00
2023-04-22T03:18:08.719Z,94343.00
2023-04-22T03:19:08.652Z,94343.00
2023-04-22T03:20:08.659Z,94341.00
2023-04-22T03:21:08.719Z,94341.00
2023-04-22T03:22:08.740Z,94341.00
2023-04-22T03:23:08.777Z,94339.00
2023-04-22T03:24:08.792Z,94341.00
2023-04-22T03:25:08.810Z,94339.00
2023-04-22T03:26:08.878Z,94337.00
2023-04-22T03:27:08.899Z,94341.00
2023-04-22T03:28:08.906Z,94341.00
2023-04-22T03:29:08.940Z,94341.00
2023-04-22T03:30:08.949Z,94339.00
2023-04-22T03:31:09.042Z,94341.00
2023-04-22T03:32:09.094Z,94343.00
2023-04-22T03:33:09.133Z,94345.00
2023-04-22T03:34:09.096Z,94345.00
2023-04-22T03:35:09.182Z,94343.00
2023-04-22T03:36:09.180Z,94343.00
2023-04-22T03:37:09.227Z,94347.00
2023-04-22T03:38:09.266Z,94345.00
2023-04-22T03:39:09.272Z,94345.00
2023-04-22T03:40:09.289Z,94345.00
2023-04-22T03:41:09.367Z,94347.00
2023-04-22T03:42:09.379Z,94347.00
2023-04-22T03:43:09.403Z,94347.00
2023-04-22T03:44:09.429Z,94343.00
2023-04-22T03:45:09.484Z,94347.00
2023-04-22T03:46:09.566Z,94345.00
2023-04-22T03:47:09.544Z,94347.00
2023-04-22T03:48:09.621Z,94347.00
2023-04-22T03:49:09.611Z,94345.00
2023-04-22T03:50:09.641Z,94347.00
2023-04-22T03:51:09.666Z,94345.00
2023-04-22T03:52:09.682Z,94347.00
2023-04-22T03:53:09.733Z,94347.00
2023-04-22T03:54:09.784Z,94345.00
2023-04-22T03:55:09.789Z,94347.00
2023-04-22T03:56:09.835Z,94347.00
2023-04-22T03:57:09.894Z,94347.00
2023-04-22T03:58:09.883Z,94347.00
2023-04-22T03:59:09.913Z,94349.00
2023-04-22T04:00:09.965Z,94347.00
2023-04-22T04:01:09.989Z,94349.00
2023-04-22T04:02:10.088Z,94351.00
2023-04-22T04:03:10.240Z,94353.00
2023-04-22T04:04:10.366Z,94353.00
2023-04-22T04:05:10.201Z,94355.00
2023-04-22T04:06:10.203Z,94355.00
2023-04-22T04:07:10.208Z,94353.00
2023-04-22T04:08:10.350Z,94351.00
2023-04-22T04:09:10.271Z,94351.00
2023-04-22T04:10:10.296Z,94351.00
2023-04-22T04:11:10.349Z,94351.00
2023-04-22T04:12:10.391Z,94349.00
2023-04-22T04:13:10.420Z,94349.00
2023-04-22T04:14:10.490Z,94349.00
2023-04-22T04:15:10.502Z,94351.00
2023-04-22T04:16:10.566Z,94351.00
2023-04-22T04:17:10.551Z,94355.00
2023-04-22T04:18:10.597Z,94357.00
2023-04-22T04:19:10.627Z,94357.00
2023-04-22T04:20:10.672Z,94355.00
2023-04-22T04:21:10.856Z,94355.00
2023-04-22T04:22:10.756Z,94353.00
2023-04-22T04:23:10.784Z,94355.00
2023-04-22T04:24:10.810Z,94353.00
2023-04-22T04:25:10.874Z,94355.00
2023-04-22T04:26:10.885Z,94355.00
2023-04-22T04:27:10.949Z,94355.00
2023-04-22T04:28:10.965Z,94353.00
2023-04-22T04:29:11.058Z,94355.00
2023-04-22T04:30:11.041Z,94351.00
2023-04-22T04:31:11.096Z,94353.00
2023-04-22T04:32:11.085Z,94353.00
2023-04-22T04:33:11.265Z,94349.00
2023-04-22T04:34:11.181Z,94349.00
2023-04-22T04:35:11.238Z,94347.00
2023-04-22T04:36:11.270Z,94349.00
2023-04-22T04:37:11.283Z,94349.00
2023-04-22T04:38:11.337Z,94351.00
2023-04-22T04:39:11.364Z,94351.00
2023-04-22T04:40:11.411Z,94349.00
2023-04-22T04:41:11.453Z,94351.00
2023-04-22T04:42:11.523Z,94353.00
2023-04-22T04:43:11.543Z,94357.00
2023-04-22T04:44:11.573Z,94357.00
2023-04-22T04:45:11.629Z,94357.00
2023-04-22T04:46:11.684Z,94361.00
2023-04-22T04:47:11.693Z,94363.00
2023-04-22T04:48:11.800Z,94368.00
2023-04-22T04:49:11.793Z,94366.00
2023-04-22T04:50:11.869Z,94370.00
2023-04-22T04:51:11.898Z,94372.00
2023-04-22T04:52:11.976Z,94370.00
2023-04-22T04:53:11.945Z,94374.00
2023-04-22T04:54:11.994Z,94378.00
2023-04-22T04:55:12.022Z,94380.00
2023-04-22T04:56:12.161Z,94378.00
2023-04-22T04:57:12.105Z,94380.00
2023-04-22T04:58:12.182Z,94380.00
2023-04-22T04:59:12.198Z,94382.00
2023-04-22T05:00:12.211Z,94384.00
2023-04-22T05:01:12.310Z,94382.00
2023-04-22T05:02:12.437Z,94382.00
2023-04-22T05:03:12.494Z,94382.00
2023-04-22T05:04:12.625Z,94382.00
2023-04-22T05:05:12.421Z,94380.00
2023-04-22T05:06:12.452Z,94382.00
2023-04-22T05:07:12.513Z,94386.00
2023-04-22T05:08:12.526Z,94388.00
2023-04-22T05:09:12.588Z,94388.00
2023-04-22T05:10:12.594Z,94396.00
2023-04-22T05:11:12.633Z,94388.00
2023-04-22T05:12:12.703Z,94388.00
2023-04-22T05:13:12.743Z,94388.00
2023-04-22T05:14:12.795Z,94384.00
2023-04-22T05:15:12.816Z,94384.00
2023-04-22T05:16:12.911Z,94382.00
2023-04-22T05:17:12.906Z,94382.00
2023-04-22T05:18:12.956Z,94382.00
2023-04-22T05:19:12.982Z,94382.00
2023-04-22T05:20:13.023Z,94384.00
2023-04-22T05:21:13.083Z,94382.00
2023-04-22T05:22:13.154Z,94380.00
2023-04-22T05:23:13.163Z,94374.00
2023-04-22T05:24:13.200Z,94378.00
2023-04-22T05:25:13.274Z,94380.00
2023-04-22T05:26:13.312Z,94376.00
2023-04-22T05:27:13.337Z,94372.00
2023-04-22T05:28:13.384Z,94374.00
2023-04-22T05:29:13.409Z,94372.00
2023-04-22T05:30:13.483Z,94370.00
2023-04-22T05:31:13.502Z,94368.00
2023-04-22T05:32:13.678Z,94368.00
2023-04-22T05:33:13.696Z,94368.00
2023-04-22T05:34:13.688Z,94372.00
2023-04-22T05:35:13.661Z,94368.00
2023-04-22T05:36:13.800Z,94368.00
2023-04-22T05:37:13.768Z,94370.00
2023-04-22T05:38:13.806Z,94372.00
2023-04-22T05:39:13.869Z,94368.00
2023-04-22T05:40:13.906Z,94370.00
2023-04-22T05:41:13.945Z,94370.00
2023-04-22T05:42:14.012Z,94370.00
2023-04-22T05:43:14.045Z,94372.00
2023-04-22T05:44:14.110Z,94374.00
2023-04-22T05:45:14.119Z,94372.00
2023-04-22T05:46:14.403Z,94376.00
2023-04-22T05:47:14.227Z,94380.00
2023-04-22T05:48:14.283Z,94380.00
2023-04-22T05:49:14.331Z,94382.00
2023-04-22T05:50:14.401Z,94384.00
2023-04-22T05:51:14.439Z,94384.00
2023-04-22T05:52:14.470Z,94384.00
2023-04-22T05:53:14.525Z,94388.00
2023-04-22T05:54:14.605Z,94386.00
2023-04-22T05:55:14.682Z,94384.00
2023-04-22T05:56:14.706Z,94388.00
2023-04-22T05:57:14.687Z,94384.00
2023-04-22T05:58:14.748Z,94384.00
2023-04-22T05:59:14.756Z,94382.00
2023-04-22T06:00:14.820Z,94384.00
2023-04-22T06:01:14.863Z,94380.00
2023-04-22T06:02:14.936Z,94380.00
2023-04-22T06:03:15.063Z,94378.00
2023-04-22T06:04:15.191Z,94378.00
2023-04-22T06:05:15.139Z,94382.00
2023-04-22T06:06:15.099Z,94382.00
2023-04-22T06:07:15.138Z,94380.00
2023-04-22T06:08:15.218Z,94384.00
2023-04-22T06:09:15.190Z,94382.00
2023-04-22T06:10:15.212Z,94380.00
2023-04-22T06:11:15.291Z,94384.00
2023-04-22T06:12:15.317Z,94380.00
2023-04-22T06:13:15.353Z,94380.00
2023-04-22T06:14:15.407Z,94382.00
2023-04-22T06:15:15.456Z,94376.00
2023-04-22T06:16:15.858Z,94380.00
2023-04-22T06:17:15.498Z,94378.00
2023-04-22T06:18:15.537Z,94376.00
2023-04-22T06:19:15.578Z,94378.00
2023-04-22T06:20:15.629Z,94374.00
2023-04-22T06:21:15.702Z,94372.00
2023-04-22T06:22:15.742Z,94370.00
2023-04-22T06:23:15.721Z,94368.00
2023-04-22T06:24:15.770Z,94370.00
2023-04-22T06:25:15.804Z,94368.00
2023-04-22T06:26:15.843Z,94372.00
2023-04-22T06:27:15.975Z,94374.00
2023-04-22T06:28:15.931Z,94370.00
2023-04-22T06:29:16.001Z,94376.00
2023-04-22T06:30:16.023Z,94374.00
2023-04-22T06:31:16.822Z,94372.00
2023-04-22T06:32:16.111Z,94376.00
2023-04-22T06:33:16.253Z,94372.00
2023-04-22T06:34:16.168Z,94374.00
2023-04-22T06:35:16.228Z,94370.00
2023-04-22T06:36:16.281Z,94366.00
2023-04-22T06:37:16.286Z,94368.00
2023-04-22T06:38:16.348Z,94372.00
2023-04-22T06:39:16.389Z,94372.00
2023-04-22T06:40:16.428Z,94370.00
2023-04-22T06:41:16.462Z,94372.00
2023-04-22T06:42:16.517Z,94370.00
2023-04-22T06:43:16.561Z,94366.00
2023-04-22T06:44:16.625Z,94368.00
2023-04-22T06:45:16.627Z,94370.00
2023-04-22T06:46:16.711Z,94370.00
2023-04-22T06:47:16.736Z,94372.00
2023-04-22T06:48:16.827Z,94372.00
2023-04-22T06:49:16.850Z,94374.00
2023-04-22T06:50:16.901Z,94376.00
2023-04-22T06:51:16.936Z,94376.00
2023-04-22T06:52:17.000Z,94378.00
2023-04-22T06:53:17.052Z,94378.00
2023-04-22T06:54:17.094Z,94380.00
2023-04-22T06:55:17.164Z,94376.00
2023-04-22T06:56:17.232Z,94380.00
2023-04-22T06:57:17.264Z,94382.00
2023-04-22T06:58:17.329Z,94380.00
2023-04-22T06:59:17.360Z,94380.00
2023-04-22T07:00:17.415Z,94380.00
2023-04-22T07:01:17.491Z,94380.00
2023-04-22T07:02:17.644Z,94380.00
2023-04-22T07:03:17.702Z,94380.00
2023-04-22T07:04:17.690Z,94378.00
2023-04-22T07:05:17.693Z,94378.00
2023-04-22T07:06:17.757Z,94372.00
2023-04-22T07:07:17.813Z,94370.00
2023-04-22T07:08:17.904Z,94376.00
2023-04-22T07:09:17.928Z,94376.00
2023-04-22T07:10:17.985Z,94372.00
2023-04-22T07:11:18.376Z,94370.00
2023-04-22T07:12:18.068Z,94370.00
2023-04-22T07:13:18.105Z,94370.00
2023-04-22T07:14:18.168Z,94366.00
2023-04-22T07:15:18.208Z,94366.00
2023-04-22T07:16:18.311Z,94370.00
2023-04-22T07:17:18.333Z,94366.00
2023-04-22T07:18:18.354Z,94363.00
2023-04-22T07:19:18.418Z,94366.00
2023-04-22T07:20:18.430Z,94366.00
2023-04-22T07:21:18.485Z,94359.00
2023-04-22T07:22:18.594Z,94366.00
2023-04-22T07:23:18.604Z,94365.00
2023-04-22T07:24:18.615Z,94357.00
2023-04-22T07:25:18.677Z,94365.00
2023-04-22T07:26:18.736Z,94357.00
2023-04-22T07:27:18.734Z,94366.00
2023-04-22T07:28:18.810Z,94363.00
2023-04-22T07:29:18.851Z,94361.00
2023-04-22T07:30:18.894Z,94355.00
2023-04-22T07:31:18.962Z,94357.00
2023-04-22T07:32:19.001Z,94353.00
2023-04-22T07:33:19.021Z,94349.00
2023-04-22T07:34:19.077Z,94347.00
2023-04-22T07:35:19.153Z,94349.00
2023-04-22T07:36:19.229Z,94345.00
2023-04-22T07:37:19.237Z,94349.00
2023-04-22T07:38:19.293Z,94347.00
2023-04-22T07:39:19.346Z,94345.00
2023-04-22T07:40:19.401Z,94347.00
2023-04-22T07:41:19.453Z,94349.00
2023-04-22T07:42:19.486Z,94347.00
2023-04-22T07:43:19.529Z,94345.00
2023-04-22T07:44:19.651Z,94347.00
2023-04-22T07:45:19.642Z,94343.00
2023-04-22T07:46:19.763Z,94345.00
2023-04-22T07:47:19.712Z,94343.00
2023-04-22T07:48:19.757Z,94341.00
2023-04-22T07:49:19.823Z,94345.00
2023-04-22T07:50:19.848Z,94341.00
2023-04-22T07:51:19.905Z,94345.00
2023-04-22T07:52:19.940Z,94345.00
2023-04-22T07:53:19.984Z,94345.00
2023-04-22T07:54:20.033Z,94345.00
2023-04-22T07:55:20.049Z,94345.00
2023-04-22T07:56:20.110Z,94343.00
2023-04-22T07:57:20.136Z,94345.00
2023-04-22T07:58:20.186Z,94347.00
2023-04-22T07:59:20.250Z,94343.00
2023-04-22T08:00:20.283Z,94341.00
2023-04-22T08:01:20.394Z,94335.00
2023-04-22T08:02:20.489Z,94335.00
2023-04-22T08:03:21.567Z,94337.00
2023-04-22T08:04:20.710Z,94335.00
2023-04-22T08:05:20.656Z,94333.00
2023-04-22T08:06:20.617Z,94335.00
2023-04-22T08:08:20.644Z,94333.00
2023-04-22T08:09:20.723Z,94331.00
2023-04-22T08:10:20.634Z,94333.00
2023-04-22T08:11:20.641Z,94329.00
2023-04-22T08:12:20.612Z,94327.00
2023-04-22T08:13:20.626Z,94327.00
2023-04-22T08:14:20.604Z,94329.00
2023-04-22T08:15:20.680Z,94327.00
2023-04-22T08:16:20.710Z,94329.00
2023-04-22T08:17:20.588Z,94325.00
2023-04-22T08:18:20.587Z,94323.00
2023-04-22T08:19:20.566Z,94325.00
2023-04-22T08:20:20.563Z,94323.00
2023-04-22T08:21:20.588Z,94318.00
2023-04-22T08:22:20.575Z,94316.00
2023-04-22T08:23:20.564Z,94318.00
2023-04-22T08:24:20.541Z,94316.00
2023-04-22T08:25:20.560Z,94316.00
2023-04-22T08:26:20.530Z,94318.00
2023-04-22T08:27:20.534Z,94316.00
2023-04-22T08:28:20.515Z,94316.00
2023-04-22T08:29:20.533Z,94314.00
2023-04-22T08:30:20.500Z,94316.00
2023-04-22T08:31:20.540Z,94312.00
2023-04-22T08:32:20.497Z,94310.00
2023-04-22T08:33:20.493Z,94312.00
2023-04-22T08:34:20.497Z,94308.00
2023-04-22T08:35:20.490Z,94308.00
2023-04-22T08:36:20.494Z,94304.00
2023-04-22T08:37:20.482Z,94302.00
2023-04-22T08:38:20.502Z,94300.00
2023-04-22T08:39:20.450Z,94296.00
2023-04-22T08:40:20.429Z,94294.00
2023-04-22T08:41:20.443Z,94292.00
2023-04-22T08:42:20.460Z,94290.00
2023-04-22T08:43:20.421Z,94286.00
2023-04-22T08:44:20.406Z,94286.00
2023-04-22T08:45:20.408Z,94284.00
2023-04-22T08:46:20.428Z,94282.00
2023-04-22T08:47:20.413Z,94280.00
2023-04-22T08:48:20.429Z,94282.00
2023-04-22T08:49:20.499Z,94280.00
2023-04-22T08:50:20.535Z,94280.00
2023-04-22T08:51:20.561Z,94282.00
2023-04-22T08:52:20.637Z,94280.00
2023-04-22T08:53:22.348Z,94278.00
2023-04-22T08:54:20.681Z,94280.00
2023-04-22T08:55:20.655Z,94278.00
2023-04-22T08:56:20.662Z,94278.00
2023-04-22T08:57:20.630Z,94274.00
2023-04-22T08:58:20.647Z,94274.00
2023-04-22T08:59:20.633Z,94272.00
2023-04-22T09:00:20.689Z,94272.00
2023-04-22T09:01:20.709Z,94272.00
2023-04-22T09:02:20.669Z,94271.00
2023-04-22T09:03:20.803Z,94269.00
2023-04-22T09:04:20.705Z,94265.00
2023-04-22T09:05:20.592Z,94267.00
2023-04-22T09:06:20.610Z,94263.00
2023-04-22T09:07:20.577Z,94261.00
2023-04-22T09:08:20.589Z,94257.00
2023-04-22T09:09:20.557Z,94257.00
2023-04-22T09:10:20.570Z,94253.00
2023-04-22T09:11:20.540Z,94255.00
2023-04-22T09:12:20.566Z,94251.00
2023-04-22T09:13:20.527Z,94251.00
2023-04-22T09:14:20.540Z,94251.00
2023-04-22T09:15:20.568Z,94249.00
2023-04-22T09:16:20.586Z,94249.00
2023-04-22T09:17:20.524Z,94247.00
2023-04-22T09:18:20.520Z,94247.00
2023-04-22T09:19:20.493Z,94245.00
2023-04-22T09:20:20.589Z,94243.00
2023-04-22T09:21:20.518Z,94243.00
2023-04-22T09:22:20.493Z,94241.00
2023-04-22T09:23:20.454Z,94237.00
2023-04-22T09:24:20.514Z,94235.00
2023-04-22T09:25:20.546Z,94237.00
2023-04-22T09:26:20.582Z,94237.00
2023-04-22T09:27:20.631Z,94233.00
2023-04-22T09:28:20.637Z,94231.00
2023-04-22T09:29:20.667Z,94231.00
2023-04-22T09:30:20.718Z,94229.00
2023-04-22T09:31:20.766Z,94227.00
2023-04-22T09:32:20.814Z,94225.00
2023-04-22T09:33:20.814Z,94220.00
2023-04-22T09:34:20.842Z,94220.00
2023-04-22T09:35:20.894Z,94218.00
2023-04-22T09:36:20.941Z,94216.00
2023-04-22T09:37:20.985Z,94214.00
2023-04-22T09:38:21.006Z,94214.00
2023-04-22T09:39:21.065Z,94210.00
2023-04-22T09:40:21.096Z,94208.00
2023-04-22T09:41:21.145Z,94208.00
2023-04-22T09:42:21.163Z,94208.00
2023-04-22T09:43:21.237Z,94210.00
2023-04-22T09:44:21.256Z,94206.00
2023-04-22T09:45:21.340Z,94204.00
2023-04-22T09:46:22.992Z,94202.00
2023-04-22T09:47:21.465Z,94204.00
2023-04-22T09:48:21.453Z,94200.00
2023-04-22T09:49:21.507Z,94202.00
2023-04-22T09:50:21.523Z,94202.00
2023-04-22T09:51:21.593Z,94200.00
2023-04-22T09:52:21.616Z,94196.00
2023-04-22T09:53:21.620Z,94194.00
2023-04-22T09:54:21.697Z,94192.00
2023-04-22T09:55:21.746Z,94190.00
2023-04-22T09:56:21.738Z,94186.00
2023-04-22T09:57:21.762Z,94184.00
2023-04-22T09:58:21.773Z,94184.00
2023-04-22T09:59:21.793Z,94180.00
2023-04-22T10:00:21.812Z,94180.00
2023-04-22T10:01:21.916Z,94178.00
2023-04-22T10:02:21.985Z,94180.00
2023-04-22T10:03:21.976Z,94178.00
2023-04-22T10:04:21.931Z,94177.00
2023-04-22T10:05:21.933Z,94175.00
2023-04-22T10:06:21.983Z,94177.00
2023-04-22T10:07:21.993Z,94177.00
2023-04-22T10:08:22.019Z,94173.00
2023-04-22T10:09:22.034Z,94173.00
2023-04-22T10:10:22.070Z,94169.00
2023-04-22T10:11:22.480Z,94171.00
2023-04-22T10:12:32.772Z,94169.00
2023-04-22T10:13:23.128Z,94165.00
2023-04-22T10:14:22.133Z,94165.00
2023-04-22T10:15:22.363Z,94163.00
2023-04-22T10:16:22.189Z,94161.00
2023-04-22T10:17:22.187Z,94163.00
2023-04-22T10:18:22.102Z,94159.00
2023-04-22T10:19:22.125Z,94159.00
2023-04-22T10:20:22.080Z,94157.00
2023-04-22T10:21:22.103Z,94159.00
2023-04-22T10:22:22.215Z,94157.00
2023-04-22T10:23:22.091Z,94157.00
2023-04-22T10:24:22.068Z,94155.00
2023-04-22T10:25:22.034Z,94151.00
2023-04-22T10:26:22.042Z,94149.00
2023-04-22T10:27:22.057Z,94149.00
2023-04-22T10:28:22.099Z,94145.00
2023-04-22T10:29:22.158Z,94147.00
2023-04-22T10:30:22.168Z,94147.00
2023-04-22T10:31:22.413Z,94147.00
2023-04-22T10:32:22.275Z,94141.00
2023-04-22T10:33:22.327Z,94141.00
2023-04-22T10:34:22.340Z,94139.00
2023-04-22T10:35:22.347Z,94139.00
2023-04-22T10:36:22.415Z,94132.00
2023-04-22T10:37:22.434Z,94132.00
2023-04-22T10:38:22.516Z,94128.00
2023-04-22T10:39:22.557Z,94128.00
2023-04-22T10:40:22.649Z,94124.00
2023-04-22T10:41:22.622Z,94124.00
2023-04-22T10:42:22.629Z,94120.00
2023-04-22T10:43:22.695Z,94120.00
2023-04-22T10:44:22.731Z,94116.00
2023-04-22T10:45:22.794Z,94116.00
2023-04-22T10:46:22.847Z,94114.00
2023-04-22T10:47:22.841Z,94108.00
2023-04-22T10:48:22.905Z,94104.00
2023-04-22T10:49:22.931Z,94102.00
2023-04-22T10:50:22.944Z,94104.00
2023-04-22T10:51:22.965Z,94098.00
2023-04-22T10:52:23.029Z,94096.00
2023-04-22T10:53:23.051Z,94096.00
2023-04-22T10:54:23.113Z,94096.00
2023-04-22T10:55:23.101Z,94090.00
2023-04-22T10:56:23.153Z,94092.00
2023-04-22T10:57:23.169Z,94090.00
2023-04-22T10:58:23.198Z,94086.00
2023-04-22T10:59:23.205Z,94088.00
2023-04-22T11:00:23.254Z,94086.00
2023-04-22T11:01:23.313Z,94085.00
2023-04-22T11:02:23.355Z,94088.00
2023-04-22T11:03:23.481Z,94088.00
2023-04-22T11:04:23.618Z,94086.00
2023-04-22T11:05:25.342Z,94085.00
2023-04-22T11:06:23.699Z,94086.00
2023-04-22T11:07:23.720Z,94085.00
2023-04-22T11:08:23.810Z,94086.00
2023-04-22T11:09:23.799Z,94085.00
2023-04-22T11:10:23.834Z,94083.00
2023-04-22T11:11:23.882Z,94085.00
2023-04-22T11:12:23.916Z,94085.00
2023-04-22T11:13:23.959Z,94083.00
2023-04-22T11:14:23.985Z,94083.00
2023-04-22T11:15:24.018Z,94085.00
2023-04-22T11:16:24.081Z,94083.00
2023-04-22T11:17:24.148Z,94083.00
2023-04-22T11:18:24.138Z,94081.00
2023-04-22T11:19:24.150Z,94077.00
2023-04-22T11:20:24.160Z,94075.00
2023-04-22T11:21:24.258Z,94075.00
2023-04-22T11:22:24.269Z,94075.00
2023-04-22T11:23:24.300Z,94075.00
2023-04-22T11:24:24.296Z,94075.00
2023-04-22T11:25:24.309Z,94071.00
2023-04-22T11:26:24.372Z,94075.00
2023-04-22T11:27:24.392Z,94071.00
2023-04-22T11:28:24.414Z,94071.00
2023-04-22T11:29:24.450Z,94069.00
2023-04-22T11:30:24.496Z,94067.00
2023-04-22T11:31:24.537Z,94067.00
2023-04-22T11:32:24.590Z,94067.00
2023-04-22T11:33:24.583Z,94065.00
2023-04-22T11:34:24.622Z,94065.00
2023-04-22T11:35:24.654Z,94067.00
2023-04-22T11:36:24.725Z,94067.00
2023-04-22T11:37:24.709Z,94063.00
2023-04-22T11:38:24.735Z,94063.00
2023-04-22T11:39:24.775Z,94061.00
2023-04-22T11:41:24.814Z,94059.00
2023-04-22T11:42:24.786Z,94059.00
2023-04-22T11:43:24.810Z,94057.00
2023-04-22T11:44:24.774Z,94055.00
2023-04-22T11:45:24.790Z,94055.00
2023-04-22T11:46:24.793Z,94053.00